Flight Track Log - Related Links

Times and Time Zones

All times are in EDT time to prevent confusion due to time zone crossing. See the QXE2179 flight status page for this flight to view local times or setup timezone preferences in your user account.

Time Position Orientation Groundspeed Altitude Reporting Facility
EDT Latitude Longitude Course Direction KTS MPH feet Rate Location/Type
Fri 08:44:18 PM 47.0206 -122.2967 165° South 296 341 11,600  Level Seattle Center
Fri 08:45:19 PM 46.9428 -122.2581 161° South 298 343 13,100 1,426 Climbing Seattle Center
Fri 08:46:20 PM 46.8644 -122.2194 161° South 300 345 14,500 1,426 Climbing Seattle Center
Fri 08:47:21 PM 46.7867 -122.1811 161° South 299 344 16,000 1,475 Climbing Seattle Center
Fri 08:48:22 PM 46.7097 -122.1431 161° South 295 339 17,500 1,426 Climbing Seattle Center
Fri 08:49:00 PM 46.5215 -121.9598 165° South  Level Estimated
Fri 08:49:23 PM 46.6197 -122.1044 164° South 288 331 18,900  Level Seattle Center
Fri 08:50:24 PM 46.5411 -122.0719 164° South 292 336 19,000 49 Climbing Seattle Center
Fri 08:51:25 PM 46.4550 -122.0328 163° South 319 367 19,000  Level Seattle Center
Fri 08:52:26 PM 46.3686 -121.9981 164° South 326 375 19,000  Level Seattle Center
Fri 08:53:27 PM 46.2839 -121.9611 163° South 323 372 19,000  Level Seattle Center
Fri 08:54:28 PM 46.2017 -121.9286 165° South 318 366 19,000  Level Seattle Center
Fri 08:55:29 PM 46.1156 -121.8939 164° South 321 369 19,000  Level Seattle Center
Fri 08:56:30 PM 46.0308 -121.8583 164° South 317 365 19,000  Level Seattle Center
Fri 08:57:31 PM 45.9294 -121.8189 165° South 313 360 19,000  Level Seattle Center
Fri 08:58:32 PM 45.8394 -121.7792 163° South 327 376 19,000  Level Seattle Center
Fri 08:59:33 PM 45.7539 -121.7439 164° South 322 371 19,000  Level Seattle Center
Fri 09:00:34 PM 45.6678 -121.7094 164° South 322 371 19,000  Level Seattle Center
Fri 09:01:35 PM 45.5822 -121.6753 164° South 320 368 19,000  Level Seattle Center
Fri 09:02:36 PM 45.4981 -121.6411 164° South 317 365 19,000  Level Seattle Center
Fri 09:03:37 PM 45.4094 -121.6053 164° South 313 360 19,000  Level Seattle Center
Fri 09:04:38 PM 45.3272 -121.5719 164° South 310 357 19,000  Level Seattle Center
Fri 09:05:39 PM 45.2458 -121.5403 165° South 304 350 19,000 -98 Level Seattle Center
Fri 09:06:40 PM 45.1628 -121.5067 164° South 310 357 18,800 -689 Descending Seattle Center
Fri 09:07:41 PM 45.0717 -121.4722 165° South 331 381 17,600 -1,328 Descending Seattle Center
Fri 09:08:42 PM 44.9808 -121.4347 164° South 341 392 16,100 -1,525 Descending Seattle Center
Fri 09:09:43 PM 44.8925 -121.4003 165° South 331 381 14,500 -1,574 Descending Seattle Center
Fri 09:10:44 PM 44.8103 -121.3675 164° South 312 359 12,900 -1,672 Descending Seattle Center
Fri 09:11:45 PM 44.7339 -121.3369 164° South 290 334 11,100 -1,636 Descending Seattle Center
Fri 09:12:45 PM 44.6606 -121.3072 164° South 277 319 9,600 -1,289 Descending Seattle Center
Fri 09:13:46 PM 44.5861 -121.2792 165° South 275 316 8,500 -984 Descending Seattle Center
Fri 09:14:47 PM 44.5144 -121.2519 165° South 272 313 7,600 -984 Descending Seattle Center
Fri 09:15:48 PM 44.4303 -121.2142 162° South 268 308 6,500 -984 Descending Seattle Center
Fri 09:16:49 PM 44.3719 -121.1794 157° South 247 284 5,600 -1,180 Descending Seattle Center
Fri 09:17:50 PM 44.3244 -121.1336 145° Southeast 223 257 4,100 -934 Descending Seattle Center
Fri 09:18:51 PM 44.2783 -121.1025 154° Southeast 190 219 3,700 -492 Descending Seattle Center
Fri 09:19:52 PM 44.2614 -121.1344 233° Southwest 161 185 3,100 -590 Descending Seattle Center

Login

Don't have an account? Register now (free) for customized features, flight alerts, and more!